sensor_id;sensor_type;location;lat;lon;timestamp;temperature;humidity
22071;DHT22;11200;51.488;6.668;2023-02-15T04:46:13;2.60;99.90
22071;DHT22;11200;51.488;6.668;2023-02-15T04:48:39;3.00;99.90
22071;DHT22;11200;51.488;6.668;2023-02-15T04:51:06;2.50;99.90
22071;DHT22;11200;51.488;6.668;2023-02-15T04:53:32;2.60;99.90
22071;DHT22;11200;51.488;6.668;2023-02-15T04:55:58;2.50;99.90
22071;DHT22;11200;51.488;6.668;2023-02-15T04:58:23;2.60;99.90
22071;DHT22;11200;51.488;6.668;2023-02-15T05:00:49;2.50;99.90
22071;DHT22;11200;51.488;6.668;2023-02-15T05:03:14;2.50;99.90
22071;DHT22;11200;51.488;6.668;2023-02-15T05:05:45;2.60;99.90
22071;DHT22;11200;51.488;6.668;2023-02-15T05:08:32;2.70;99.90
22071;DHT22;11200;51.488;6.668;2023-02-15T05:11:06;2.90;99.90
22071;DHT22;11200;51.488;6.668;2023-02-15T05:13:32;4.10;99.90
22071;DHT22;11200;51.488;6.668;2023-02-15T05:15:58;4.10;99.90
22071;DHT22;11200;51.488;6.668;2023-02-15T05:18:24;2.60;99.90
22071;DHT22;11200;51.488;6.668;2023-02-15T05:21:01;2.80;99.90
22071;DHT22;11200;51.488;6.668;2023-02-15T05:23:44;2.70;99.90
22071;DHT22;11200;51.488;6.668;2023-02-15T05:26:21;2.80;99.90
22071;DHT22;11200;51.488;6.668;2023-02-15T05:29:06;4.40;99.90
22071;DHT22;11200;51.488;6.668;2023-02-15T05:34:36;2.50;99.90
22071;DHT22;11200;51.488;6.668;2023-02-15T05:37:05;2.90;99.90
22071;DHT22;11200;51.488;6.668;2023-02-15T05:39:39;4.10;99.90
22071;DHT22;11200;51.488;6.668;2023-02-15T05:42:14;2.90;99.90
22071;DHT22;11200;51.488;6.668;2023-02-15T05:44:46;3.10;99.90
22071;DHT22;11200;51.488;6.668;2023-02-15T05:47:12;2.90;99.90
22071;DHT22;11200;51.488;6.668;2023-02-15T05:49:41;4.10;99.90
22071;DHT22;11200;51.488;6.668;2023-02-15T05:52:07;3.50;99.90
22071;DHT22;11200;51.488;6.668;2023-02-15T05:54:36;2.90;99.90
22071;DHT22;11200;51.488;6.668;2023-02-15T05:57:02;3.80;99.90
22071;DHT22;11200;51.488;6.668;2023-02-15T05:59:28;2.70;99.90
22071;DHT22;11200;51.488;6.668;2023-02-15T06:01:53;3.10;99.90
22071;DHT22;11200;51.488;6.668;2023-02-15T06:04:19;2.60;99.90
22071;DHT22;11200;51.488;6.668;2023-02-15T06:06:45;2.50;99.90
22071;DHT22;11200;51.488;6.668;2023-02-15T06:09:11;3.00;99.90
22071;DHT22;11200;51.488;6.668;2023-02-15T06:11:38;4.00;99.90
22071;DHT22;11200;51.488;6.668;2023-02-15T06:14:03;3.40;99.90
22071;DHT22;11200;51.488;6.668;2023-02-15T06:16:29;2.40;99.90
22071;DHT22;11200;51.488;6.668;2023-02-15T06:18:55;2.40;99.90
22071;DHT22;11200;51.488;6.668;2023-02-15T06:21:21;3.00;99.90
22071;DHT22;11200;51.488;6.668;2023-02-15T06:23:47;2.40;99.90
22071;DHT22;11200;51.488;6.668;2023-02-15T06:26:13;2.40;99.90
22071;DHT22;11200;51.488;6.668;2023-02-15T06:28:38;2.40;99.90
22071;DHT22;11200;51.488;6.668;2023-02-15T06:31:06;2.60;99.90
22071;DHT22;11200;51.488;6.668;2023-02-15T06:33:32;2.30;99.90
22071;DHT22;11200;51.488;6.668;2023-02-15T06:35:59;2.70;99.90
22071;DHT22;11200;51.488;6.668;2023-02-15T06:38:25;2.40;99.90
22071;DHT22;11200;51.488;6.668;2023-02-15T06:40:50;2.40;99.90
22071;DHT22;11200;51.488;6.668;2023-02-15T06:43:16;2.70;99.90
22071;DHT22;11200;51.488;6.668;2023-02-15T06:45:42;2.40;99.90
22071;DHT22;11200;51.488;6.668;2023-02-15T06:48:07;2.10;99.90
22071;DHT22;11200;51.488;6.668;2023-02-15T06:50:34;2.40;99.90
22071;DHT22;11200;51.488;6.668;2023-02-15T06:53:00;2.40;99.90
22071;DHT22;11200;51.488;6.668;2023-02-15T06:55:25;2.30;99.90
22071;DHT22;11200;51.488;6.668;2023-02-15T06:57:51;2.30;99.90
22071;DHT22;11200;51.488;6.668;2023-02-15T07:00:17;3.10;99.90
22071;DHT22;11200;51.488;6.668;2023-02-15T07:02:44;2.40;99.90
22071;DHT22;11200;51.488;6.668;2023-02-15T07:05:10;2.20;99.90
22071;DHT22;11200;51.488;6.668;2023-02-15T07:07:35;2.30;99.90
22071;DHT22;11200;51.488;6.668;2023-02-15T07:10:01;2.60;99.90
22071;DHT22;11200;51.488;6.668;2023-02-15T07:12:27;2.60;99.90
22071;DHT22;11200;51.488;6.668;2023-02-15T07:15:09;2.40;99.90
22071;DHT22;11200;51.488;6.668;2023-02-15T07:17:36;2.60;99.90
22071;DHT22;11200;51.488;6.668;2023-02-15T07:20:16;2.30;99.90
22071;DHT22;11200;51.488;6.668;2023-02-15T07:22:42;2.30;99.90
22071;DHT22;11200;51.488;6.668;2023-02-15T07:25:09;2.30;99.90
22071;DHT22;11200;51.488;6.668;2023-02-15T07:27:35;2.40;99.90
22071;DHT22;11200;51.488;6.668;2023-02-15T07:30:02;2.40;99.90
22071;DHT22;11200;51.488;6.668;2023-02-15T07:32:31;2.40;99.90
22071;DHT22;11200;51.488;6.668;2023-02-15T07:34:57;2.40;99.90
22071;DHT22;11200;51.488;6.668;2023-02-15T07:37:23;2.30;99.90
22071;DHT22;11200;51.488;6.668;2023-02-15T07:43:01;2.50;99.90
22071;DHT22;11200;51.488;6.668;2023-02-15T07:45:26;2.40;99.90
22071;DHT22;11200;51.488;6.668;2023-02-15T07:47:52;2.50;99.90
22071;DHT22;11200;51.488;6.668;2023-02-15T07:50:18;2.80;99.90
22071;DHT22;11200;51.488;6.668;2023-02-15T07:52:44;2.60;99.90
22071;DHT22;11200;51.488;6.668;2023-02-15T07:55:10;2.50;99.90
22071;DHT22;11200;51.488;6.668;2023-02-15T07:57:42;2.50;99.90
22071;DHT22;11200;51.488;6.668;2023-02-15T08:00:08;2.50;99.90
22071;DHT22;11200;51.488;6.668;2023-02-15T08:02:34;2.60;99.90
22071;DHT22;11200;51.488;6.668;2023-02-15T08:05:02;2.60;99.90
22071;DHT22;11200;51.488;6.668;2023-02-15T08:07:28;2.60;99.90
22071;DHT22;11200;51.488;6.668;2023-02-15T08:09:53;2.70;99.90
22071;DHT22;11200;51.488;6.668;2023-02-15T08:12:19;2.70;99.90
22071;DHT22;11200;51.488;6.668;2023-02-15T08:14:45;2.70;99.90
22071;DHT22;11200;51.488;6.668;2023-02-15T08:17:10;2.80;99.90
22071;DHT22;11200;51.488;6.668;2023-02-15T08:19:36;2.80;99.90
22071;DHT22;11200;51.488;6.668;2023-02-15T08:22:04;2.90;99.90
22071;DHT22;11200;51.488;6.668;2023-02-15T08:24:35;2.80;99.90
22071;DHT22;11200;51.488;6.668;2023-02-15T08:27:09;2.90;99.90
22071;DHT22;11200;51.488;6.668;2023-02-15T08:29:36;2.90;99.90
22071;DHT22;11200;51.488;6.668;2023-02-15T08:32:08;3.00;99.90
22071;DHT22;11200;51.488;6.668;2023-02-15T08:34:37;3.10;99.90
22071;DHT22;11200;51.488;6.668;2023-02-15T08:37:03;3.10;99.90
22071;DHT22;11200;51.488;6.668;2023-02-15T08:39:29;3.10;99.90
22071;DHT22;11200;51.488;6.668;2023-02-15T08:41:55;3.20;99.90
22071;DHT22;11200;51.488;6.668;2023-02-15T08:44:20;3.20;99.90
22071;DHT22;11200;51.488;6.668;2023-02-15T08:46:48;3.30;99.90
22071;DHT22;11200;51.488;6.668;2023-02-15T08:49:17;3.50;99.90
22071;DHT22;11200;51.488;6.668;2023-02-15T08:51:44;3.60;99.90
22071;DHT22;11200;51.488;6.668;2023-02-15T08:54:16;3.80;99.90
22071;DHT22;11200;51.488;6.668;2023-02-15T08:56:43;4.10;99.90
22071;DHT22;11200;51.488;6.668;2023-02-15T08:59:23;4.40;99.90
22071;DHT22;11200;51.488;6.668;2023-02-15T09:01:52;4.70;99.90
22071;DHT22;11200;51.488;6.668;2023-02-15T09:04:19;4.90;99.90
22071;DHT22;11200;51.488;6.668;2023-02-15T09:06:46;5.20;99.90
22071;DHT22;11200;51.488;6.668;2023-02-15T09:09:13;5.60;99.90
22071;DHT22;11200;51.488;6.668;2023-02-15T09:11:44;5.90;99.90
22071;DHT22;11200;51.488;6.668;2023-02-15T09:14:11;6.00;99.90
22071;DHT22;11200;51.488;6.668;2023-02-15T09:16:39;6.20;99.90
22071;DHT22;11200;51.488;6.668;2023-02-15T09:19:05;6.40;99.90
22071;DHT22;11200;51.488;6.668;2023-02-15T09:21:33;6.60;99.90
22071;DHT22;11200;51.488;6.668;2023-02-15T09:24:02;6.80;99.90
22071;DHT22;11200;51.488;6.668;2023-02-15T09:26:30;7.00;99.90
22071;DHT22;11200;51.488;6.668;2023-02-15T09:28:59;7.20;99.90
22071;DHT22;11200;51.488;6.668;2023-02-15T09:31:32;7.40;99.90
22071;DHT22;11200;51.488;6.668;2023-02-15T09:33:59;7.50;99.90
22071;DHT22;11200;51.488;6.668;2023-02-15T09:36:31;7.70;99.90
22071;DHT22;11200;51.488;6.668;2023-02-15T09:56:06;8.40;99.90
22071;DHT22;11200;51.488;6.668;2023-02-15T10:06:36;8.90;99.90
22071;DHT22;11200;51.488;6.668;2023-02-15T10:28:11;11.30;99.90
22071;DHT22;11200;51.488;6.668;2023-02-15T10:30:50;11.50;99.90
22071;DHT22;11200;51.488;6.668;2023-02-15T10:41:53;12.40;99.90
22071;DHT22;11200;51.488;6.668;2023-02-15T10:58:50;13.30;99.90
22071;DHT22;11200;51.488;6.668;2023-02-15T11:01:17;13.40;99.90
22071;DHT22;11200;51.488;6.668;2023-02-15T11:06:40;13.70;99.90
22071;DHT22;11200;51.488;6.668;2023-02-15T11:09:10;14.00;99.90
22071;DHT22;11200;51.488;6.668;2023-02-15T11:11:39;14.00;99.90
22071;DHT22;11200;51.488;6.668;2023-02-15T11:16:45;14.30;99.90
22071;DHT22;11200;51.488;6.668;2023-02-15T11:21:43;14.40;99.90
22071;DHT22;11200;51.488;6.668;2023-02-15T11:24:16;14.60;99.90
22071;DHT22;11200;51.488;6.668;2023-02-15T11:27:02;14.70;99.90
22071;DHT22;11200;51.488;6.668;2023-02-15T11:29:36;14.90;99.90
22071;DHT22;11200;51.488;6.668;2023-02-15T11:32:32;15.00;99.90
22071;DHT22;11200;51.488;6.668;2023-02-15T11:40:28;15.20;99.90
22071;DHT22;11200;51.488;6.668;2023-02-15T11:42:58;15.10;99.90
22071;DHT22;11200;51.488;6.668;2023-02-15T11:45:33;15.10;99.90
22071;DHT22;11200;51.488;6.668;2023-02-15T11:48:00;15.10;99.90
22071;DHT22;11200;51.488;6.668;2023-02-15T11:50:32;15.10;99.90
22071;DHT22;11200;51.488;6.668;2023-02-15T11:53:32;15.10;99.90
22071;DHT22;11200;51.488;6.668;2023-02-15T11:55:58;15.00;99.90
22071;DHT22;11200;51.488;6.668;2023-02-15T11:58:28;15.10;99.90
22071;DHT22;11200;51.488;6.668;2023-02-15T12:03:48;15.00;99.90
22071;DHT22;11200;51.488;6.668;2023-02-15T12:06:21;15.00;99.90
22071;DHT22;11200;51.488;6.668;2023-02-15T12:08:55;15.10;99.90
22071;DHT22;11200;51.488;6.668;2023-02-15T12:11:34;15.10;99.90
22071;DHT22;11200;51.488;6.668;2023-02-15T12:14:03;15.10;99.90
22071;DHT22;11200;51.488;6.668;2023-02-15T12:16:51;15.10;99.90
22071;DHT22;11200;51.488;6.668;2023-02-15T12:21:50;15.20;99.90
22071;DHT22;11200;51.488;6.668;2023-02-15T12:24:44;15.30;99.90
22071;DHT22;11200;51.488;6.668;2023-02-15T12:27:20;15.30;99.90
22071;DHT22;11200;51.488;6.668;2023-02-15T12:29:53;15.40;99.90
22071;DHT22;11200;51.488;6.668;2023-02-15T12:32:26;15.40;99.90
22071;DHT22;11200;51.488;6.668;2023-02-15T12:34:59;15.40;99.90
22071;DHT22;11200;51.488;6.668;2023-02-15T12:37:30;15.40;99.90
22071;DHT22;11200;51.488;6.668;2023-02-15T12:39:59;15.30;99.90
22071;DHT22;11200;51.488;6.668;2023-02-15T12:42:27;15.40;99.90
22071;DHT22;11200;51.488;6.668;2023-02-15T12:44:58;15.40;99.90
22071;DHT22;11200;51.488;6.668;2023-02-15T12:47:24;15.40;99.90
22071;DHT22;11200;51.488;6.668;2023-02-15T12:50:14;15.50;99.90
22071;DHT22;11200;51.488;6.668;2023-02-15T12:52:48;15.50;99.90
22071;DHT22;11200;51.488;6.668;2023-02-15T12:55:21;15.50;99.90
22071;DHT22;11200;51.488;6.668;2023-02-15T12:57:48;15.60;99.90
22071;DHT22;11200;51.488;6.668;2023-02-15T13:02:44;15.60;99.90
22071;DHT22;11200;51.488;6.668;2023-02-15T13:05:42;15.60;99.90
22071;DHT22;11200;51.488;6.668;2023-02-15T13:08:27;15.60;99.90
22071;DHT22;11200;51.488;6.668;2023-02-15T13:13:33;15.60;99.90
22071;DHT22;11200;51.488;6.668;2023-02-15T13:16:37;15.60;99.90
22071;DHT22;11200;51.488;6.668;2023-02-15T13:19:14;15.50;99.90
22071;DHT22;11200;51.488;6.668;2023-02-15T13:21:47;15.50;99.90
22071;DHT22;11200;51.488;6.668;2023-02-15T13:24:17;15.50;99.90
22071;DHT22;11200;51.488;6.668;2023-02-15T13:26:45;15.40;99.90
22071;DHT22;11200;51.488;6.668;2023-02-15T13:29:18;15.40;99.90
22071;DHT22;11200;51.488;6.668;2023-02-15T13:31:46;15.40;99.90
22071;DHT22;11200;51.488;6.668;2023-02-15T13:34:34;15.30;99.90
22071;DHT22;11200;51.488;6.668;2023-02-15T13:37:20;15.20;99.90
22071;DHT22;11200;51.488;6.668;2023-02-15T13:39:47;15.20;99.90
22071;DHT22;11200;51.488;6.668;2023-02-15T13:52:11;14.90;99.90
22071;DHT22;11200;51.488;6.668;2023-02-15T14:11:34;14.50;99.90
22071;DHT22;11200;51.488;6.668;2023-02-15T14:22:44;14.20;99.90
22071;DHT22;11200;51.488;6.668;2023-02-15T14:25:18;14.10;99.90
22071;DHT22;11200;51.488;6.668;2023-02-15T14:27:55;14.10;99.90
22071;DHT22;11200;51.488;6.668;2023-02-15T14:30:25;14.00;99.90
22071;DHT22;11200;51.488;6.668;2023-02-15T14:32:55;13.90;99.90
22071;DHT22;11200;51.488;6.668;2023-02-15T14:35:27;13.90;99.90
22071;DHT22;11200;51.488;6.668;2023-02-15T14:38:32;13.80;99.90
22071;DHT22;11200;51.488;6.668;2023-02-15T14:41:14;13.80;99.90
22071;DHT22;11200;51.488;6.668;2023-02-15T14:46:48;13.70;99.90
22071;DHT22;11200;51.488;6.668;2023-02-15T14:49:22;13.60;99.90
22071;DHT22;11200;51.488;6.668;2023-02-15T15:02:21;13.40;99.90
22071;DHT22;11200;51.488;6.668;2023-02-15T15:12:46;13.20;99.90
22071;DHT22;11200;51.488;6.668;2023-02-15T15:18:03;13.10;99.90
22071;DHT22;11200;51.488;6.668;2023-02-15T15:23:38;13.00;99.90
22071;DHT22;11200;51.488;6.668;2023-02-15T15:26:25;13.00;99.90
22071;DHT22;11200;51.488;6.668;2023-02-15T15:49:17;12.70;99.90
22071;DHT22;11200;51.488;6.668;2023-02-15T15:51:45;12.70;99.90
22071;DHT22;11200;51.488;6.668;2023-02-15T15:54:21;12.70;99.90
22071;DHT22;11200;51.488;6.668;2023-02-15T15:57:02;12.60;99.90
22071;DHT22;11200;51.488;6.668;2023-02-15T15:59:33;12.50;99.90
22071;DHT22;11200;51.488;6.668;2023-02-15T16:02:07;12.50;99.90
22071;DHT22;11200;51.488;6.668;2023-02-15T16:04:35;12.20;99.90
22071;DHT22;11200;51.488;6.668;2023-02-15T16:10:02;12.40;99.90
22071;DHT22;11200;51.488;6.668;2023-02-15T16:12:31;12.30;99.90
22071;DHT22;11200;51.488;6.668;2023-02-15T16:15:13;12.30;99.90
22071;DHT22;11200;51.488;6.668;2023-02-15T16:17:42;12.20;99.90
22071;DHT22;11200;51.488;6.668;2023-02-15T16:22:53;12.20;99.90
22071;DHT22;11200;51.488;6.668;2023-02-15T16:28:10;11.90;99.90
22071;DHT22;11200;51.488;6.668;2023-02-15T16:30:37;12.00;99.90
22071;DHT22;11200;51.488;6.668;2023-02-15T16:35:34;11.90;99.90
22071;DHT22;11200;51.488;6.668;2023-02-15T16:38:01;11.80;99.90
22071;DHT22;11200;51.488;6.668;2023-02-15T16:40:48;11.80;99.90
22071;DHT22;11200;51.488;6.668;2023-02-15T16:43:22;11.70;99.90
22071;DHT22;11200;51.488;6.668;2023-02-15T16:45:50;11.70;99.90
22071;DHT22;11200;51.488;6.668;2023-02-15T16:48:22;11.30;99.90
22071;DHT22;11200;51.488;6.668;2023-02-15T16:50:53;11.70;99.90
22071;DHT22;11200;51.488;6.668;2023-02-15T16:53:24;12.40;99.90
22071;DHT22;11200;51.488;6.668;2023-02-15T16:55:52;11.70;99.90
22071;DHT22;11200;51.488;6.668;2023-02-15T16:58:25;11.80;99.90
22071;DHT22;11200;51.488;6.668;2023-02-15T17:00:58;11.80;99.90
22071;DHT22;11200;51.488;6.668;2023-02-15T17:03:26;11.30;99.90
22071;DHT22;11200;51.488;6.668;2023-02-15T17:05:58;11.90;99.90
22071;DHT22;11200;51.488;6.668;2023-02-15T17:08:41;12.40;99.90
22071;DHT22;11200;51.488;6.668;2023-02-15T17:11:16;11.00;99.90
22071;DHT22;11200;51.488;6.668;2023-02-15T17:19:29;10.90;99.90
22071;DHT22;11200;51.488;6.668;2023-02-15T17:22:01;10.80;99.90
22071;DHT22;11200;51.488;6.668;2023-02-15T17:24:35;10.90;99.90
22071;DHT22;11200;51.488;6.668;2023-02-15T17:27:07;10.70;99.90
22071;DHT22;11200;51.488;6.668;2023-02-15T17:29:38;11.20;99.90
22071;DHT22;11200;51.488;6.668;2023-02-15T17:32:12;10.90;99.90
22071;DHT22;11200;51.488;6.668;2023-02-15T17:37:42;10.50;99.90
22071;DHT22;11200;51.488;6.668;2023-02-15T17:40:24;10.40;99.90
22071;DHT22;11200;51.488;6.668;2023-02-15T17:42:51;10.40;99.90
22071;DHT22;11200;51.488;6.668;2023-02-15T17:45:18;10.60;99.90
22071;DHT22;11200;51.488;6.668;2023-02-15T17:47:46;10.60;99.90
22071;DHT22;11200;51.488;6.668;2023-02-15T17:50:24;10.30;99.90
22071;DHT22;11200;51.488;6.668;2023-02-15T17:52:51;10.20;99.90
22071;DHT22;11200;51.488;6.668;2023-02-15T17:55:20;10.30;99.90
22071;DHT22;11200;51.488;6.668;2023-02-15T17:58:07;10.50;99.90
22071;DHT22;11200;51.488;6.668;2023-02-15T18:00:36;10.90;99.90
22071;DHT22;11200;51.488;6.668;2023-02-15T18:03:21;10.10;99.90
22071;DHT22;11200;51.488;6.668;2023-02-15T18:06:05;9.90;99.90
22071;DHT22;11200;51.488;6.668;2023-02-15T18:08:49;10.10;99.90
22071;DHT22;11200;51.488;6.668;2023-02-15T18:11:34;10.90;99.90
22071;DHT22;11200;51.488;6.668;2023-02-15T18:14:07;10.80;99.90
22071;DHT22;11200;51.488;6.668;2023-02-15T18:19:03;10.10;99.90
22071;DHT22;11200;51.488;6.668;2023-02-15T18:21:30;9.70;99.90
22071;DHT22;11200;51.488;6.668;2023-02-15T18:23:56;10.50;99.90
22071;DHT22;11200;51.488;6.668;2023-02-15T18:26:23;9.50;99.90
22071;DHT22;11200;51.488;6.668;2023-02-15T18:28:52;9.60;99.90
22071;DHT22;11200;51.488;6.668;2023-02-15T18:31:18;9.50;99.90
22071;DHT22;11200;51.488;6.668;2023-02-15T18:33:53;9.40;99.90
22071;DHT22;11200;51.488;6.668;2023-02-15T18:36:26;9.30;99.90
22071;DHT22;11200;51.488;6.668;2023-02-15T18:38:54;9.20;99.90
22071;DHT22;11200;51.488;6.668;2023-02-15T18:41:21;9.90;99.90
22071;DHT22;11200;51.488;6.668;2023-02-15T18:43:47;9.10;99.90
22071;DHT22;11200;51.488;6.668;2023-02-15T18:46:14;9.40;99.90
22071;DHT22;11200;51.488;6.668;2023-02-15T18:48:40;9.20;99.90
22071;DHT22;11200;51.488;6.668;2023-02-15T18:51:23;9.60;99.90
22071;DHT22;11200;51.488;6.668;2023-02-15T18:53:50;9.10;99.90
22071;DHT22;11200;51.488;6.668;2023-02-15T18:56:20;9.80;99.90
22071;DHT22;11200;51.488;6.668;2023-02-15T18:58:46;9.00;99.90
22071;DHT22;11200;51.488;6.668;2023-02-15T19:01:17;9.20;99.90
22071;DHT22;11200;51.488;6.668;2023-02-15T19:03:49;8.80;99.90
22071;DHT22;11200;51.488;6.668;2023-02-15T19:06:18;8.90;99.90
22071;DHT22;11200;51.488;6.668;2023-02-15T19:08:46;8.80;99.90
22071;DHT22;11200;51.488;6.668;2023-02-15T19:11:22;8.70;99.90
22071;DHT22;11200;51.488;6.668;2023-02-15T19:13:50;8.70;99.90
22071;DHT22;11200;51.488;6.668;2023-02-15T19:16:29;9.90;99.90
22071;DHT22;11200;51.488;6.668;2023-02-15T19:18:55;8.70;99.90
22071;DHT22;11200;51.488;6.668;2023-02-15T19:21:22;8.50;99.90
22071;DHT22;11200;51.488;6.668;2023-02-15T19:24:11;9.50;99.90
22071;DHT22;11200;51.488;6.668;2023-02-15T19:26:40;9.80;99.90
22071;DHT22;11200;51.488;6.668;2023-02-15T19:29:06;8.90;99.90
22071;DHT22;11200;51.488;6.668;2023-02-15T19:31:34;9.20;99.90
22071;DHT22;11200;51.488;6.668;2023-02-15T19:34:00;8.40;99.90
22071;DHT22;11200;51.488;6.668;2023-02-15T19:36:26;8.50;99.90
22071;DHT22;11200;51.488;6.668;2023-02-15T19:38:53;8.40;99.90
22071;DHT22;11200;51.488;6.668;2023-02-15T19:41:26;8.80;99.90
22071;DHT22;11200;51.488;6.668;2023-02-15T19:43:54;8.40;99.90
22071;DHT22;11200;51.488;6.668;2023-02-15T19:46:22;8.10;99.90
22071;DHT22;11200;51.488;6.668;2023-02-15T19:48:52;9.00;99.90
22071;DHT22;11200;51.488;6.668;2023-02-15T19:51:23;8.70;99.90
22071;DHT22;11200;51.488;6.668;2023-02-15T19:53:51;8.30;99.90
22071;DHT22;11200;51.488;6.668;2023-02-15T19:56:22;9.30;99.90
22071;DHT22;11200;51.488;6.668;2023-02-15T19:58:49;8.50;99.90
22071;DHT22;11200;51.488;6.668;2023-02-15T20:01:17;8.70;99.90
22071;DHT22;11200;51.488;6.668;2023-02-15T20:03:42;9.60;99.90
22071;DHT22;11200;51.488;6.668;2023-02-15T20:06:13;8.30;99.90
22071;DHT22;11200;51.488;6.668;2023-02-15T20:08:39;7.70;99.90
22071;DHT22;11200;51.488;6.668;2023-02-15T20:11:11;9.10;99.90
22071;DHT22;11200;51.488;6.668;2023-02-15T20:13:37;7.70;99.90
22071;DHT22;11200;51.488;6.668;2023-02-15T20:16:03;8.80;99.90
22071;DHT22;11200;51.488;6.668;2023-02-15T20:18:38;7.80;99.90
22071;DHT22;11200;51.488;6.668;2023-02-15T20:21:03;8.70;99.90
22071;DHT22;11200;51.488;6.668;2023-02-15T20:23:35;7.70;99.90
22071;DHT22;11200;51.488;6.668;2023-02-15T20:26:12;8.00;99.90
22071;DHT22;11200;51.488;6.668;2023-02-15T20:28:38;9.30;99.90
22071;DHT22;11200;51.488;6.668;2023-02-15T20:31:04;8.30;99.90
22071;DHT22;11200;51.488;6.668;2023-02-15T20:33:29;7.40;99.90
22071;DHT22;11200;51.488;6.668;2023-02-15T20:35:55;7.70;99.90
22071;DHT22;11200;51.488;6.668;2023-02-15T20:38:23;8.50;99.90
22071;DHT22;11200;51.488;6.668;2023-02-15T20:40:51;7.30;99.90
22071;DHT22;11200;51.488;6.668;2023-02-15T20:43:36;7.10;99.90
22071;DHT22;11200;51.488;6.668;2023-02-15T20:46:01;8.20;99.90
22071;DHT22;11200;51.488;6.668;2023-02-15T20:48:27;8.60;99.90
22071;DHT22;11200;51.488;6.668;2023-02-15T20:50:54;7.80;99.90
22071;DHT22;11200;51.488;6.668;2023-02-15T20:53:23;8.70;99.90
22071;DHT22;11200;51.488;6.668;2023-02-15T20:55:55;8.20;99.90
22071;DHT22;11200;51.488;6.668;2023-02-15T20:58:26;8.40;99.90
22071;DHT22;11200;51.488;6.668;2023-02-15T21:00:54;7.20;99.90
22071;DHT22;11200;51.488;6.668;2023-02-15T21:03:25;7.60;99.90
22071;DHT22;11200;51.488;6.668;2023-02-15T21:05:55;7.20;99.90
22071;DHT22;11200;51.488;6.668;2023-02-15T21:08:22;7.10;99.90
22071;DHT22;11200;51.488;6.668;2023-02-15T21:10:50;7.10;99.90
22071;DHT22;11200;51.488;6.668;2023-02-15T21:13:26;7.40;99.90
22071;DHT22;11200;51.488;6.668;2023-02-15T21:15:54;7.00;99.90
22071;DHT22;11200;51.488;6.668;2023-02-15T21:20:49;7.00;99.90
22071;DHT22;11200;51.488;6.668;2023-02-15T21:23:19;7.00;99.90
22071;DHT22;11200;51.488;6.668;2023-02-15T21:25:45;6.90;99.90
22071;DHT22;11200;51.488;6.668;2023-02-15T21:28:25;6.90;99.90
22071;DHT22;11200;51.488;6.668;2023-02-15T21:30:52;6.90;99.90
22071;DHT22;11200;51.488;6.668;2023-02-15T21:33:18;7.00;99.90
22071;DHT22;11200;51.488;6.668;2023-02-15T21:35:47;6.90;99.90
22071;DHT22;11200;51.488;6.668;2023-02-15T21:38:16;6.90;99.90
22071;DHT22;11200;51.488;6.668;2023-02-15T21:40:43;6.90;99.90
22071;DHT22;11200;51.488;6.668;2023-02-15T21:43:16;6.80;99.90
22071;DHT22;11200;51.488;6.668;2023-02-15T21:46:12;6.80;99.90
22071;DHT22;11200;51.488;6.668;2023-02-15T21:48:56;6.80;99.90
22071;DHT22;11200;51.488;6.668;2023-02-15T21:51:22;6.80;99.90
22071;DHT22;11200;51.488;6.668;2023-02-15T21:54:13;6.70;99.90
22071;DHT22;11200;51.488;6.668;2023-02-15T21:56:39;6.70;99.90
22071;DHT22;11200;51.488;6.668;2023-02-15T21:59:13;6.70;99.90
22071;DHT22;11200;51.488;6.668;2023-02-15T22:01:47;6.60;99.90
22071;DHT22;11200;51.488;6.668;2023-02-15T22:04:18;6.60;99.90
22071;DHT22;11200;51.488;6.668;2023-02-15T22:06:45;6.90;99.90
22071;DHT22;11200;51.488;6.668;2023-02-15T22:09:16;6.60;99.90
22071;DHT22;11200;51.488;6.668;2023-02-15T22:11:43;6.70;99.90
22071;DHT22;11200;51.488;6.668;2023-02-15T22:14:37;6.50;99.90
22071;DHT22;11200;51.488;6.668;2023-02-15T22:17:14;6.50;99.90
22071;DHT22;11200;51.488;6.668;2023-02-15T22:19:39;6.40;99.90
22071;DHT22;11200;51.488;6.668;2023-02-15T22:22:05;6.50;99.90
22071;DHT22;11200;51.488;6.668;2023-02-15T22:24:31;6.50;99.90
22071;DHT22;11200;51.488;6.668;2023-02-15T22:26:56;6.50;99.90
22071;DHT22;11200;51.488;6.668;2023-02-15T22:29:22;6.40;99.90
22071;DHT22;11200;51.488;6.668;2023-02-15T22:31:47;6.40;99.90
22071;DHT22;11200;51.488;6.668;2023-02-15T22:34:30;6.30;99.90
22071;DHT22;11200;51.488;6.668;2023-02-15T22:36:57;6.30;99.90
22071;DHT22;11200;51.488;6.668;2023-02-15T22:39:23;6.30;99.90
22071;DHT22;11200;51.488;6.668;2023-02-15T22:41:53;6.30;99.90
22071;DHT22;11200;51.488;6.668;2023-02-15T22:44:25;6.30;99.90
22071;DHT22;11200;51.488;6.668;2023-02-15T22:46:53;6.30;99.90
22071;DHT22;11200;51.488;6.668;2023-02-15T22:49:19;6.20;99.90
22071;DHT22;11200;51.488;6.668;2023-02-15T22:51:47;6.20;99.90
22071;DHT22;11200;51.488;6.668;2023-02-15T22:54:14;6.20;99.90
22071;DHT22;11200;51.488;6.668;2023-02-15T22:56:43;6.20;99.90
22071;DHT22;11200;51.488;6.668;2023-02-15T22:59:25;6.20;99.90
22071;DHT22;11200;51.488;6.668;2023-02-15T23:01:54;6.20;99.90
22071;DHT22;11200;51.488;6.668;2023-02-15T23:04:23;6.20;99.90
22071;DHT22;11200;51.488;6.668;2023-02-15T23:06:49;6.10;99.90
22071;DHT22;11200;51.488;6.668;2023-02-15T23:09:15;6.10;99.90
22071;DHT22;11200;51.488;6.668;2023-02-15T23:11:41;6.20;99.90
22071;DHT22;11200;51.488;6.668;2023-02-15T23:14:26;6.10;99.90
